Time;durP1;ratioP1;P1;durP2;ratioP2;P2;SDS_P1;SDS_P2;PMS_P1;PMS_P2;Temp;Humidity;BMP_temperature;BMP_pressure;BME280_temperature;BME280_humidity;BME280_pressure;Samples;Min_cycle;Max_cycle;Signal;HPM_P1;HPM_P2
2021/04/03 00:01:06;;;;;;;25.77;3.45;;;5.80;96.20;;;;;;5090134;28;20043;-66
2021/04/03 00:03:32;;;;;;;26.45;3.90;;;5.90;96.20;;;;;;5087837;28;20371;-66
2021/04/03 00:05:58;;;;;;;22.10;3.58;;;5.90;96.40;;;;;;5089428;28;20048;-66
2021/04/03 00:08:25;;;;;;;23.70;3.63;;;5.90;96.40;;;;;;5086889;28;20460;-66
2021/04/03 00:10:52;;;;;;;21.30;4.07;;;5.90;96.40;;;;;;5091493;28;20126;-66
2021/04/03 00:13:20;;;;;;;24.38;3.85;;;5.90;96.40;;;;;;5089072;28;20561;-66
2021/04/03 00:15:46;;;;;;;32.53;4.10;;;5.90;96.50;;;;;;5090956;28;20040;-66
2021/04/03 00:18:15;;;;;;;20.15;3.58;;;5.90;96.40;;;;;;5087724;28;20368;-66
2021/04/03 00:20:41;;;;;;;25.38;4.20;;;5.90;96.60;;;;;;5087866;28;20032;-66
2021/04/03 00:23:07;;;;;;;20.85;3.38;;;5.90;96.80;;;;;;5088407;28;20070;-66
2021/04/03 00:25:33;;;;;;;29.70;4.85;;;5.40;96.70;;;;;;5090827;28;20083;-66
2021/04/03 00:28:00;;;;;;;28.70;4.53;;;5.90;96.90;;;;;;5085931;28;20460;-66
2021/04/03 00:30:26;;;;;;;31.85;4.75;;;6.00;96.80;;;;;;5090645;28;20055;-66
2021/04/03 00:32:54;;;;;;;31.77;4.18;;;5.90;96.90;;;;;;5090305;28;20060;-66
2021/04/03 00:35:22;;;;;;;32.83;6.32;;;5.90;96.90;;;;;;5088979;28;20051;-66
2021/04/03 00:37:49;;;;;;;35.45;4.35;;;5.90;96.90;;;;;;5090043;28;20108;-66
2021/04/03 00:40:19;;;;;;;29.70;4.25;;;5.80;97.00;;;;;;5087860;28;20531;-66
2021/04/03 00:42:46;;;;;;;32.85;6.28;;;5.80;96.90;;;;;;5086968;28;20110;-66
2021/04/03 00:45:13;;;;;;;23.50;3.92;;;5.80;97.00;;;;;;5091164;28;20032;-66
2021/04/03 00:47:40;;;;;;;31.45;4.57;;;5.70;97.10;;;;;;5089194;28;20047;-66
2021/04/03 00:50:07;;;;;;;34.53;5.40;;;5.70;97.20;;;;;;5092154;28;20040;-66
2021/04/03 00:52:34;;;;;;;32.28;4.55;;;5.70;97.30;;;;;;5088472;28;20052;-66
2021/04/03 00:54:59;;;;;;;29.38;4.70;;;5.60;97.20;;;;;;5092432;28;20056;-66
2021/04/03 00:57:25;;;;;;;31.08;5.38;;;5.60;97.40;;;;;;5085163;28;20074;-66
2021/04/03 00:59:51;;;;;;;28.60;4.15;;;5.60;97.40;;;;;;5089251;28;20044;-66
2021/04/03 01:02:17;;;;;;;33.72;5.25;;;5.50;97.30;;;;;;5088062;28;20044;-66
2021/04/03 01:04:43;;;;;;;33.72;5.25;;;5.50;97.50;;;;;;5089190;28;20032;-66
2021/04/03 01:07:08;;;;;;;34.08;5.88;;;5.50;97.60;;;;;;5120102;27;20466;-66
2021/04/03 01:09:37;;;;;;;32.70;5.55;;;5.50;97.60;;;;;;5088790;28;20048;-66
2021/04/03 01:12:19;;;;;;;32.15;5.35;;;5.40;97.50;;;;;;5090143;28;20032;-66
2021/04/03 01:14:58;;;;;;;35.17;5.75;;;5.30;97.60;;;;;;5088453;28;20048;-66
2021/04/03 01:17:34;;;;;;;37.85;4.97;;;5.30;97.70;;;;;;5088275;28;20072;-66
2021/04/03 01:20:30;;;;;;;33.42;6.57;;;5.30;97.70;;;;;;5085785;28;20032;-66
2021/04/03 01:23:04;;;;;;;25.83;4.07;;;5.30;98.00;;;;;;5087165;28;20035;-66
2021/04/03 01:26:10;;;;;;;30.63;6.57;;;5.20;97.90;;;;;;5085875;28;20040;-66
2021/04/03 01:28:58;;;;;;;34.95;5.72;;;5.30;98.00;;;;;;5089475;28;20127;-67
2021/04/03 01:31:24;;;;;;;42.03;5.55;;;5.20;98.00;;;;;;5088846;28;20044;-66
2021/04/03 01:33:54;;;;;;;29.45;4.43;;;5.20;98.00;;;;;;5086826;28;20398;-66
2021/04/03 01:36:23;;;;;;;31.42;5.18;;;5.20;98.00;;;;;;5090977;28;20068;-66
2021/04/03 01:39:02;;;;;;;26.88;4.60;;;5.10;98.00;;;;;;5089928;28;20081;-66
2021/04/03 01:41:30;;;;;;;36.65;4.95;;;5.10;98.00;;;;;;5087188;28;20054;-66
2021/04/03 01:43:58;;;;;;;27.77;5.22;;;5.10;98.10;;;;;;5087840;28;20036;-66
2021/04/03 01:46:35;;;;;;;25.48;4.25;;;5.10;98.00;;;;;;5085985;28;20378;-66
2021/04/03 01:49:10;;;;;;;40.70;5.22;;;5.00;98.20;;;;;;5089115;28;20128;-66
2021/04/03 01:51:37;;;;;;;38.40;5.77;;;5.00;98.20;;;;;;5086786;28;20059;-66
2021/04/03 01:54:05;;;;;;;26.15;4.70;;;5.00;98.40;;;;;;5084619;28;20036;-66
2021/04/03 01:56:32;;;;;;;38.13;5.80;;;5.00;98.30;;;;;;5086087;28;20508;-66
2021/04/03 01:58:59;;;;;;;38.38;6.78;;;5.00;98.30;;;;;;5086683;28;20132;-66
2021/04/03 02:01:26;;;;;;;41.92;5.22;;;5.00;98.40;;;;;;5086407;28;20135;-66
2021/04/03 02:03:55;;;;;;;43.42;6.00;;;5.00;98.70;;;;;;5088453;28;20548;-66
2021/04/03 02:06:21;;;;;;;45.30;6.03;;;5.10;98.80;;;;;;5090726;28;20464;-66
2021/04/03 02:08:48;;;;;;;34.05;5.70;;;5.10;98.70;;;;;;5088929;28;20043;-66
2021/04/03 02:11:15;;;;;;;32.38;5.70;;;5.10;98.90;;;;;;5089316;28;20040;-66
2021/04/03 02:13:41;;;;;;;40.78;6.63;;;5.10;98.80;;;;;;5086727;28;20036;-66
2021/04/03 02:16:08;;;;;;;34.95;5.25;;;5.10;98.70;;;;;;5089120;28;20081;-66
2021/04/03 02:18:34;;;;;;;34.67;6.47;;;5.10;98.70;;;;;;5087370;28;20074;-66
2021/04/03 02:21:08;;;;;;;37.75;6.40;;;5.10;98.90;;;;;;5087859;28;20036;-66
2021/04/03 02:23:35;;;;;;;32.75;5.55;;;5.10;99.20;;;;;;5082493;28;20542;-66
2021/04/03 02:26:02;;;;;;;39.17;6.97;;;5.10;99.00;;;;;;5084647;28;20048;-66
2021/04/03 02:28:28;;;;;;;29.23;4.90;;;5.10;98.90;;;;;;5082078;28;20039;-66
2021/04/03 02:30:54;;;;;;;36.13;6.00;;;5.10;98.90;;;;;;5085842;28;20600;-66
2021/04/03 02:33:21;;;;;;;39.25;5.32;;;5.10;98.90;;;;;;5114134;28;20066;-66
2021/04/03 02:35:47;;;;;;;43.63;7.20;;;5.20;99.10;;;;;;5088966;28;20147;-66
2021/04/03 02:38:14;;;;;;;32.78;5.70;;;5.20;99.10;;;;;;5086172;28;20123;-66
2021/04/03 02:40:40;;;;;;;54.20;6.63;;;5.20;99.20;;;;;;5089303;28;20071;-66
2021/04/03 02:43:18;;;;;;;41.40;6.53;;;5.20;99.20;;;;;;5084023;28;20436;-66
2021/04/03 02:45:53;;;;;;;39.40;6.32;;;5.20;99.40;;;;;;5090278;28;20048;-66
2021/04/03 02:48:21;;;;;;;34.50;5.35;;;5.10;99.20;;;;;;5117214;28;20130;-66
2021/04/03 02:50:51;;;;;;;40.63;6.40;;;5.20;99.30;;;;;;5070407;28;20044;-66
2021/04/03 02:53:28;;;;;;;39.17;7.32;;;5.30;99.40;;;;;;5084342;28;20093;-66
2021/04/03 02:55:56;;;;;;;47.00;6.75;;;5.20;99.50;;;;;;5086005;28;20478;-66
2021/04/03 02:58:24;;;;;;;48.20;7.53;;;5.20;99.80;;;;;;5089003;28;20032;-66
2021/04/03 03:00:56;;;;;;;47.30;6.07;;;5.20;99.80;;;;;;5089889;28;20071;-66
2021/04/03 03:03:26;;;;;;;54.28;7.47;;;5.30;99.90;;;;;;5083696;28;20152;-66
2021/04/03 03:05:59;;;;;;;44.20;7.32;;;5.30;99.90;;;;;;5092513;28;20116;-66
2021/04/03 03:08:27;;;;;;;42.53;6.60;;;5.30;99.90;;;;;;5092227;28;20028;-66
2021/04/03 03:10:55;;;;;;;48.13;6.50;;;5.30;99.90;;;;;;5093908;28;20040;-66
2021/04/03 03:13:21;;;;;;;50.53;6.72;;;5.30;99.90;;;;;;5089198;28;20408;-66
2021/04/03 03:15:47;;;;;;;43.83;6.47;;;5.40;99.90;;;;;;5107199;28;20063;-66
2021/04/03 03:18:14;;;;;;;64.25;8.35;;;5.30;99.90;;;;;;5091232;28;20121;-66
2021/04/03 03:20:41;;;;;;;39.97;6.82;;;5.40;99.90;;;;;;5090679;28;20040;-66
2021/04/03 03:23:08;;;;;;;56.33;8.27;;;5.50;99.90;;;;;;5087412;28;20413;-66
2021/04/03 03:25:34;;;;;;;44.33;8.15;;;5.50;99.90;;;;;;5093339;28;20480;-66
2021/04/03 03:28:00;;;;;;;53.05;7.38;;;5.50;99.90;;;;;;5091942;28;20040;-66
2021/04/03 03:30:27;;;;;;;47.40;7.75;;;5.60;99.90;;;;;;5091832;28;20040;-66
2021/04/03 03:32:54;;;;;;;60.90;10.05;;;5.50;99.90;;;;;;5089105;28;20040;-66
2021/04/03 03:35:20;;;;;;;40.40;7.85;;;5.60;99.90;;;;;;5091001;28;20043;-66
2021/04/03 03:37:47;;;;;;;58.53;8.98;;;5.60;99.90;;;;;;5090075;28;20281;-66
2021/04/03 03:40:15;;;;;;;53.42;8.05;;;5.60;99.90;;;;;;5088760;28;20439;-66
2021/04/03 03:42:42;;;;;;;54.00;9.13;;;5.60;99.90;;;;;;5086343;28;20118;-65
2021/04/03 03:45:10;;;;;;;53.72;8.82;;;5.60;99.90;;;;;;5088713;28;20064;-66
2021/04/03 03:47:36;;;;;;;56.85;7.88;;;5.60;99.90;;;;;;5088585;28;20047;-66
2021/04/03 03:50:03;;;;;;;50.42;7.60;;;5.70;99.90;;;;;;5088688;28;20131;-66
2021/04/03 03:52:28;;;;;;;50.38;7.63;;;5.60;99.90;;;;;;5084294;28;20040;-66
2021/04/03 03:54:54;;;;;;;47.72;7.10;;;5.70;99.90;;;;;;5087561;28;20097;-66
2021/04/03 03:57:20;;;;;;;52.22;7.70;;;6.30;99.90;;;;;;5088616;28;20046;-66
2021/04/03 03:59:46;;;;;;;68.03;8.10;;;5.80;99.90;;;;;;5088141;28;20047;-66
2021/04/03 04:02:12;;;;;;;51.00;6.40;;;5.80;99.90;;;;;;5083643;28;20584;-66
2021/04/03 04:04:38;;;;;;;51.67;6.88;;;5.80;99.90;;;;;;5087526;28;20093;-66
2021/04/03 04:07:04;;;;;;;48.47;7.90;;;5.80;99.90;;;;;;5086057;28;20055;-66
2021/04/03 04:09:31;;;;;;;49.30;8.18;;;5.80;99.90;;;;;;5086687;28;20482;-67
2021/04/03 04:12:05;;;;;;;55.13;9.88;;;5.80;99.90;;;;;;5085068;28;20036;-66
2021/04/03 04:14:35;;;;;;;48.28;7.30;;;5.90;99.90;;;;;;5105017;28;20538;-66
2021/04/03 04:17:02;;;;;;;62.80;9.65;;;5.90;99.90;;;;;;5085157;28;20043;-66
2021/04/03 04:19:27;;;;;;;49.08;7.05;;;5.90;99.90;;;;;;5085245;28;20049;-66
2021/04/03 04:21:54;;;;;;;55.35;9.60;;;5.90;99.90;;;;;;5086876;28;20058;-66
2021/04/03 04:24:20;;;;;;;50.72;9.32;;;6.00;99.90;;;;;;5083895;28;20119;-66
2021/04/03 04:26:46;;;;;;;48.47;8.10;;;6.00;99.90;;;;;;5088555;28;20132;-66
2021/04/03 04:29:12;;;;;;;48.40;9.20;;;6.00;99.90;;;;;;5088030;28;20082;-66
2021/04/03 04:31:38;;;;;;;55.25;8.85;;;6.00;99.90;;;;;;5087989;28;20455;-66
2021/04/03 04:34:04;;;;;;;58.35;8.65;;;6.00;99.90;;;;;;5086009;28;20135;-66
2021/04/03 04:36:29;;;;;;;58.38;8.43;;;6.00;99.90;;;;;;5087856;28;20134;-66
2021/04/03 04:38:55;;;;;;;63.67;8.07;;;6.40;99.90;;;;;;5083325;28;20048;-66
2021/04/03 04:41:21;;;;;;;45.78;8.15;;;6.10;99.90;;;;;;5086695;28;20094;-66
2021/04/03 04:43:47;;;;;;;49.97;8.38;;;6.10;99.90;;;;;;5086654;28;20049;-66
2021/04/03 04:46:12;;;;;;;47.75;6.82;;;6.00;99.90;;;;;;5087059;28;20048;-66
2021/04/03 04:48:38;;;;;;;51.80;8.05;;;6.10;99.90;;;;;;5084212;28;20111;-66
2021/04/03 04:51:04;;;;;;;41.55;6.75;;;6.10;99.90;;;;;;5085308;28;20622;-66
2021/04/03 04:53:31;;;;;;;61.25;8.60;;;6.10;99.90;;;;;;5085701;28;20067;-67
2021/04/03 04:55:57;;;;;;;58.78;9.00;;;6.10;99.90;;;;;;5086742;28;20428;-66
2021/04/03 04:58:23;;;;;;;50.50;7.40;;;6.10;99.90;;;;;;5086342;28;20032;-66
2021/04/03 05:00:49;;;;;;;52.40;8.60;;;6.10;99.90;;;;;;5086453;28;20051;-66
2021/04/03 05:03:16;;;;;;;57.22;8.25;;;6.10;99.90;;;;;;5087950;28;20256;-66
2021/04/03 05:05:42;;;;;;;51.78;9.10;;;6.10;99.90;;;;;;5090036;28;20070;-66
2021/04/03 05:08:08;;;;;;;51.70;7.85;;;6.10;99.90;;;;;;5085558;28;20541;-66
2021/04/03 05:10:34;;;;;;;49.08;7.63;;;6.10;99.90;;;;;;5088548;28;20050;-66
2021/04/03 05:13:03;;;;;;;46.83;7.95;;;6.10;99.90;;;;;;5085400;28;20115;-66
2021/04/03 05:15:29;;;;;;;51.08;8.20;;;6.10;99.90;;;;;;5088926;28;20044;-66
2021/04/03 05:17:55;;;;;;;49.20;7.65;;;6.10;99.90;;;;;;5089720;28;20152;-66
2021/04/03 05:20:21;;;;;;;52.03;8.65;;;6.10;99.90;;;;;;5091326;28;20040;-66
2021/04/03 05:22:47;;;;;;;45.00;6.78;;;6.10;99.90;;;;;;5086148;28;20039;-66
2021/04/03 05:25:13;;;;;;;52.97;7.30;;;6.10;99.90;;;;;;5090468;28;20085;-66
2021/04/03 05:27:40;;;;;;;53.25;8.43;;;6.10;99.90;;;;;;5086115;28;20107;-66
2021/04/03 05:30:07;;;;;;;55.30;8.00;;;6.20;99.90;;;;;;5086146;28;20044;-66
2021/04/03 05:32:33;;;;;;;50.35;7.05;;;6.20;99.90;;;;;;5087839;28;20067;-66
2021/04/03 05:34:59;;;;;;;46.13;7.80;;;6.20;99.90;;;;;;5089705;28;20063;-66
2021/04/03 05:37:24;;;;;;;48.78;7.93;;;6.20;99.90;;;;;;5089132;28;20062;-66
2021/04/03 05:39:50;;;;;;;47.90;7.72;;;6.20;99.90;;;;;;5088895;28;20043;-66
2021/04/03 05:42:20;;;;;;;54.85;9.77;;;6.20;99.90;;;;;;5088674;28;20043;-66
2021/04/03 05:44:49;;;;;;;57.83;9.05;;;6.30;99.90;;;;;;5086656;28;20032;-66
2021/04/03 05:47:16;;;;;;;49.10;6.97;;;6.30;99.90;;;;;;5087433;28;20126;-66
2021/04/03 05:49:42;;;;;;;45.25;7.00;;;6.30;99.90;;;;;;5085726;28;20048;-66
2021/04/03 05:52:09;;;;;;;44.70;8.50;;;6.30;99.90;;;;;;5086208;28;20024;-66
2021/04/03 05:54:39;;;;;;;42.40;6.68;;;6.30;99.90;;;;;;5089192;28;20039;-66
2021/04/03 05:57:05;;;;;;;57.60;7.93;;;6.40;99.90;;;;;;5086165;28;20055;-66
2021/04/03 05:59:32;;;;;;;48.42;7.57;;;6.40;99.90;;;;;;5088774;28;20055;-66
2021/04/03 06:01:58;;;;;;;47.25;8.10;;;6.40;99.90;;;;;;5085196;28;20067;-66
2021/04/03 06:04:24;;;;;;;39.90;6.63;;;6.40;99.90;;;;;;5088206;28;20040;-66
2021/04/03 06:06:51;;;;;;;41.55;7.20;;;6.40;99.90;;;;;;5088414;28;20036;-66
2021/04/03 06:09:17;;;;;;;48.53;8.32;;;6.50;99.90;;;;;;5087739;28;20371;-66
2021/04/03 06:11:47;;;;;;;36.40;6.10;;;6.50;99.90;;;;;;5088025;28;20044;-66
2021/04/03 06:14:13;;;;;;;50.30;10.07;;;6.60;99.90;;;;;;5088242;28;20069;-66
2021/04/03 06:16:49;;;;;;;42.75;7.82;;;6.60;99.90;;;;;;5086769;28;20043;-66
2021/04/03 06:19:16;;;;;;;45.92;7.65;;;6.60;99.90;;;;;;5087917;28;20036;-66
2021/04/03 06:21:43;;;;;;;47.28;8.55;;;6.70;99.90;;;;;;5085324;28;20457;-66
2021/04/03 06:24:22;;;;;;;46.90;8.23;;;6.70;99.90;;;;;;5088468;28;20067;-66
2021/04/03 06:26:52;;;;;;;45.05;7.75;;;6.80;99.90;;;;;;5081860;28;20043;-66
2021/04/03 06:29:27;;;;;;;44.22;6.45;;;6.80;99.90;;;;;;5081464;28;20170;-66
2021/04/03 06:31:54;;;;;;;37.60;7.63;;;6.80;99.80;;;;;;5083084;28;20081;-66
2021/04/03 06:34:32;;;;;;;40.47;7.32;;;6.90;99.90;;;;;;5086106;28;20111;-66
2021/04/03 06:36:58;;;;;;;36.13;6.43;;;6.90;99.90;;;;;;5086970;28;20128;-66
2021/04/03 06:39:24;;;;;;;45.90;7.28;;;7.00;99.80;;;;;;5088523;28;20133;-66
2021/04/03 06:41:50;;;;;;;51.80;7.53;;;7.10;99.60;;;;;;5091756;28;20402;-66
2021/04/03 06:44:16;;;;;;;52.55;8.15;;;7.10;99.80;;;;;;5091745;28;20028;-66
2021/04/03 06:46:44;;;;;;;42.15;7.35;;;7.10;99.40;;;;;;5090208;28;20032;-66
2021/04/03 06:49:10;;;;;;;46.60;7.88;;;7.10;99.50;;;;;;5090754;28;20039;-66
2021/04/03 06:51:36;;;;;;;38.38;6.38;;;7.10;99.40;;;;;;5090642;28;20046;-66
2021/04/03 06:54:04;;;;;;;38.58;6.32;;;7.10;99.50;;;;;;5091761;28;20060;-66
2021/04/03 06:56:33;;;;;;;45.72;7.10;;;7.10;99.00;;;;;;5090879;28;20032;-66
2021/04/03 06:59:12;;;;;;;45.78;7.63;;;7.10;99.30;;;;;;5090040;28;20035;-66
2021/04/03 07:01:57;;;;;;;46.30;7.30;;;7.20;99.20;;;;;;5087538;28;20163;-66
2021/04/03 07:04:28;;;;;;;44.13;6.72;;;7.30;99.10;;;;;;5091632;28;20032;-66
2021/04/03 07:06:56;;;;;;;39.55;6.57;;;7.30;99.10;;;;;;5089884;28;20063;-66
2021/04/03 07:09:23;;;;;;;50.35;7.80;;;7.30;98.50;;;;;;5091936;28;20044;-66
2021/04/03 07:11:51;;;;;;;44.13;9.30;;;7.30;98.70;;;;;;5091576;28;20131;-66
2021/04/03 07:14:18;;;;;;;52.90;7.18;;;7.40;98.60;;;;;;5090672;28;20032;-66
2021/04/03 07:16:45;;;;;;;38.10;7.57;;;7.60;98.70;;;;;;5091954;28;20230;-67
2021/04/03 07:19:12;;;;;;;55.30;8.07;;;7.70;98.30;;;;;;5091286;28;20073;-67
2021/04/03 07:21:39;;;;;;;43.20;7.90;;;7.80;98.40;;;;;;5091182;28;20043;-67
2021/04/03 07:24:06;;;;;;;43.85;7.82;;;7.90;98.20;;;;;;5090669;28;20028;-67
2021/04/03 07:26:32;;;;;;;37.63;6.30;;;7.90;97.80;;;;;;5092118;28;20064;-67
2021/04/03 07:28:58;;;;;;;29.52;6.10;;;8.00;98.00;;;;;;5090597;28;20459;-67
2021/04/03 07:31:40;;;;;;;38.30;7.28;;;8.00;97.40;;;;;;5091173;28;20138;-66
2021/04/03 07:34:07;;;;;;;43.40;7.75;;;8.00;97.40;;;;;;5087903;28;20039;-67
2021/04/03 07:36:35;;;;;;;33.17;6.75;;;8.10;97.30;;;;;;5087481;28;20130;-67
2021/04/03 07:39:03;;;;;;;39.50;7.35;;;8.20;96.90;;;;;;5088811;28;20040;-67
2021/04/03 07:41:38;;;;;;;41.63;7.57;;;8.30;96.90;;;;;;5091139;28;20482;-67
2021/04/03 07:44:09;;;;;;;42.33;6.45;;;8.30;96.70;;;;;;5089959;28;20040;-67
2021/04/03 07:46:44;;;;;;;42.00;6.80;;;8.40;96.50;;;;;;5089766;28;20051;-67
2021/04/03 07:49:11;;;;;;;33.58;6.28;;;8.40;96.30;;;;;;5090518;28;20036;-67
2021/04/03 07:51:42;;;;;;;37.40;6.20;;;8.40;96.20;;;;;;5088178;28;20055;-67
2021/04/03 07:54:12;;;;;;;36.08;6.72;;;8.60;96.80;;;;;;5088748;28;20175;-67
2021/04/03 07:56:46;;;;;;;36.10;6.28;;;8.60;95.60;;;;;;5091149;28;20036;-67
2021/04/03 07:59:12;;;;;;;34.03;6.25;;;8.60;95.80;;;;;;5090384;28;20158;-67
2021/04/03 08:01:39;;;;;;;32.97;7.70;;;8.80;96.50;;;;;;5090404;28;20405;-67
2021/04/03 08:04:06;;;;;;;33.88;6.18;;;8.90;96.20;;;;;;5090498;28;20040;-67
2021/04/03 08:06:34;;;;;;;35.42;7.70;;;9.20;96.40;;;;;;5089728;28;20040;-67
2021/04/03 08:09:03;;;;;;;34.45;6.13;;;9.70;95.80;;;;;;5089375;28;20056;-66
2021/04/03 08:11:29;;;;;;;30.52;5.63;;;10.00;94.50;;;;;;5089923;28;20044;-66
2021/04/03 08:13:56;;;;;;;33.95;5.30;;;10.20;93.00;;;;;;5090019;28;20504;-67
2021/04/03 08:16:25;;;;;;;29.95;6.32;;;10.70;93.70;;;;;;5090910;28;20066;-67
2021/04/03 08:18:53;;;;;;;22.95;5.72;;;11.30;92.60;;;;;;5090402;28;20036;-67
2021/04/03 08:21:20;;;;;;;31.88;6.82;;;12.00;90.90;;;;;;5089701;28;20038;-67
2021/04/03 08:23:48;;;;;;;28.65;5.93;;;12.50;90.50;;;;;;5089960;28;20119;-68
2021/04/03 08:26:15;;;;;;;30.48;5.32;;;12.80;89.50;;;;;;5089288;28;20131;-68
2021/04/03 08:28:41;;;;;;;22.63;5.03;;;13.40;88.50;;;;;;5089874;28;20062;-68
2021/04/03 08:31:12;;;;;;;20.88;4.68;;;13.80;86.40;;;;;;5090940;28;20419;-68
2021/04/03 08:33:38;;;;;;;30.70;6.30;;;14.20;85.50;;;;;;5089052;28;20507;-68
2021/04/03 08:36:17;;;;;;;20.17;5.30;;;14.50;83.50;;;;;;5088119;28;20032;-69
2021/04/03 08:38:44;;;;;;;30.70;6.75;;;14.60;82.00;;;;;;5089750;28;20036;-68
2021/04/03 08:41:15;;;;;;;30.55;6.80;;;14.50;77.20;;;;;;5090634;28;20040;-68
2021/04/03 08:43:41;;;;;;;27.48;6.60;;;14.60;77.20;;;;;;5087310;28;20489;-68
2021/04/03 08:46:11;;;;;;;24.27;5.78;;;14.80;79.30;;;;;;5090879;28;20070;-68
2021/04/03 08:48:39;;;;;;;23.88;6.38;;;14.30;77.40;;;;;;5086201;28;20067;-67
2021/04/03 08:51:07;;;;;;;28.10;6.20;;;14.10;80.00;;;;;;5090135;28;20040;-68
2021/04/03 08:53:53;;;;;;;23.13;5.05;;;13.60;77.80;;;;;;5088747;28;20048;-68
2021/04/03 08:56:24;;;;;;;22.50;5.85;;;13.30;80.80;;;;;;5086244;28;20393;-68
2021/04/03 08:58:51;;;;;;;27.50;5.63;;;13.20;81.70;;;;;;5089329;28;20036;-68
2021/04/03 09:01:19;;;;;;;23.15;5.60;;;13.20;82.00;;;;;;5089172;28;20040;-67
2021/04/03 09:03:47;;;;;;;29.33;7.00;;;13.10;80.70;;;;;;5088765;28;20042;-67
2021/04/03 09:06:13;;;;;;;32.38;6.00;;;12.90;82.40;;;;;;5089571;28;20527;-67
2021/04/03 09:08:38;;;;;;;29.13;6.28;;;13.00;85.60;;;;;;5088569;28;20063;-67
2021/04/03 09:11:05;;;;;;;24.00;5.05;;;13.10;85.60;;;;;;5088412;28;20050;-67
2021/04/03 09:13:35;;;;;;;33.75;5.35;;;13.30;83.60;;;;;;5084610;28;20032;-67
2021/04/03 09:16:12;;;;;;;26.73;6.20;;;13.20;82.70;;;;;;5085863;28;20081;-67
2021/04/03 09:18:40;;;;;;;29.25;6.72;;;12.80;82.30;;;;;;5097267;28;20525;-67
2021/04/03 09:21:06;;;;;;;29.05;6.07;;;12.90;84.40;;;;;;5085513;28;20408;-67
2021/04/03 09:23:40;;;;;;;28.30;4.50;;;12.90;84.50;;;;;;5086415;28;20035;-67
2021/04/03 09:26:05;;;;;;;22.92;5.28;;;13.00;82.10;;;;;;5087082;28;20047;-68
2021/04/03 09:28:42;;;;;;;30.52;6.50;;;13.00;83.00;;;;;;5087408;28;20036;-68
2021/04/03 09:31:09;;;;;;;24.15;5.55;;;12.90;83.60;;;;;;5087273;28;20139;-68
2021/04/03 09:33:46;;;;;;;35.78;7.88;;;12.80;82.10;;;;;;5087420;28;20040;-67
2021/04/03 09:36:14;;;;;;;26.50;6.32;;;12.70;82.70;;;;;;5086416;28;20036;-67
2021/04/03 09:38:40;;;;;;;23.45;5.28;;;12.80;85.20;;;;;;5084565;28;20092;-67
2021/04/03 09:41:26;;;;;;;25.25;5.05;;;12.90;83.70;;;;;;5087789;28;20498;-66
2021/04/03 09:43:52;;;;;;;34.65;6.13;;;12.80;84.20;;;;;;5087204;28;20040;-67
2021/04/03 09:46:18;;;;;;;23.27;4.72;;;12.90;85.70;;;;;;5086897;28;20393;-67
2021/04/03 09:48:44;;;;;;;24.58;6.57;;;12.90;84.20;;;;;;5088212;28;20111;-67
2021/04/03 09:51:10;;;;;;;29.55;5.45;;;12.80;82.90;;;;;;5087979;28;20036;-67
2021/04/03 09:53:37;;;;;;;32.42;6.88;;;12.70;82.50;;;;;;5086422;28;20050;-67
2021/04/03 09:56:03;;;;;;;27.55;5.28;;;12.50;82.70;;;;;;5088708;28;20390;-66
2021/04/03 09:58:29;;;;;;;25.38;5.18;;;12.60;84.50;;;;;;5087647;28;20044;-66
2021/04/03 10:00:55;;;;;;;31.05;5.78;;;12.60;84.30;;;;;;5088097;28;20531;-66
2021/04/03 10:03:21;;;;;;;20.15;5.47;;;12.60;83.70;;;;;;5085746;28;20122;-67
2021/04/03 10:05:46;;;;;;;24.40;5.38;;;12.60;82.40;;;;;;5085662;28;20036;-66
2021/04/03 10:08:12;;;;;;;24.45;5.05;;;12.50;81.50;;;;;;5086925;28;20047;-67
2021/04/03 10:10:39;;;;;;;23.48;4.32;;;12.20;81.80;;;;;;5088077;28;20047;-67
2021/04/03 10:13:07;;;;;;;32.67;6.30;;;12.30;83.20;;;;;;5086740;28;20139;-68
2021/04/03 10:15:34;;;;;;;25.83;4.43;;;12.20;85.40;;;;;;5085673;28;20584;-68
2021/04/03 10:18:00;;;;;;;21.90;5.28;;;12.30;83.50;;;;;;5083662;28;20486;-68
2021/04/03 10:20:26;;;;;;;23.45;6.00;;;12.20;81.70;;;;;;5086902;28;20040;-68
2021/04/03 10:22:52;;;;;;;30.40;5.40;;;12.10;85.10;;;;;;5085833;28;20217;-68
2021/04/03 10:25:18;;;;;;;21.17;4.53;;;12.20;86.60;;;;;;5085929;28;20093;-68
2021/04/03 10:27:43;;;;;;;28.58;5.80;;;12.50;87.00;;;;;;5082052;28;20032;-68
2021/04/03 10:30:10;;;;;;;22.45;4.85;;;12.40;85.40;;;;;;5085109;28;20115;-68
2021/04/03 10:32:36;;;;;;;20.27;4.88;;;12.50;84.10;;;;;;5083050;28;20044;-68
2021/04/03 10:35:02;;;;;;;21.05;5.38;;;12.60;85.40;;;;;;5087756;28;20036;-68
2021/04/03 10:37:28;;;;;;;25.23;5.10;;;12.60;82.90;;;;;;5086671;28;20040;-68
2021/04/03 10:39:54;;;;;;;20.67;4.55;;;12.70;83.40;;;;;;5086361;28;20130;-68
2021/04/03 10:42:20;;;;;;;25.50;4.88;;;12.80;82.40;;;;;;5086081;28;20193;-68
2021/04/03 10:44:45;;;;;;;22.42;4.50;;;12.60;83.70;;;;;;5087668;28;20167;-68
2021/04/03 10:47:11;;;;;;;22.23;4.80;;;12.70;84.00;;;;;;5094375;28;20040;-69
2021/04/03 10:49:37;;;;;;;26.05;5.20;;;12.70;83.40;;;;;;5085691;28;20081;-69
2021/04/03 10:52:03;;;;;;;26.23;5.80;;;12.50;82.10;;;;;;5080729;28;20159;-69
2021/04/03 10:54:28;;;;;;;27.98;5.40;;;12.70;81.70;;;;;;5085868;28;20035;-68
2021/04/03 10:56:54;;;;;;;29.00;5.45;;;12.70;83.70;;;;;;5085807;28;20036;-68
2021/04/03 10:59:20;;;;;;;22.05;5.03;;;12.70;82.10;;;;;;5083622;28;20174;-68
2021/04/03 11:01:45;;;;;;;27.10;5.10;;;12.80;82.60;;;;;;5086541;28;20032;-69
2021/04/03 11:04:11;;;;;;;20.42;4.22;;;12.80;83.30;;;;;;5086920;28;20559;-69
2021/04/03 11:06:37;;;;;;;24.58;5.25;;;12.70;81.50;;;;;;5086121;28;20127;-69
2021/04/03 11:09:03;;;;;;;23.13;4.82;;;12.80;80.80;;;;;;5086194;28;20036;-69
2021/04/03 11:11:30;;;;;;;26.77;4.30;;;12.50;77.80;;;;;;5085633;28;20142;-68
2021/04/03 11:13:56;;;;;;;20.00;3.55;;;12.40;83.30;;;;;;5086688;28;20036;-69
2021/04/03 11:16:22;;;;;;;18.95;4.32;;;12.20;79.30;;;;;;5085734;28;20456;-68
2021/04/03 11:18:48;;;;;;;28.08;5.38;;;12.20;82.90;;;;;;5080450;28;20044;-69
2021/04/03 11:21:13;;;;;;;19.90;3.42;;;12.50;84.70;;;;;;5078839;28;20062;-69
2021/04/03 11:23:39;;;;;;;21.00;4.07;;;12.60;83.80;;;;;;5078448;28;20046;-69
2021/04/03 11:26:05;;;;;;;23.05;4.95;;;12.70;81.30;;;;;;5081757;28;20127;-68
2021/04/03 11:28:30;;;;;;;21.77;4.75;;;12.60;78.70;;;;;;5083055;28;20036;-69
2021/04/03 11:30:56;;;;;;;24.85;4.80;;;12.60;82.20;;;;;;5089526;28;20047;-69
2021/04/03 11:33:22;;;;;;;20.10;4.43;;;12.70;81.90;;;;;;5087410;28;20039;-69
2021/04/03 11:35:50;;;;;;;17.67;3.72;;;12.80;81.40;;;;;;5089706;28;20036;-69
2021/04/03 11:38:16;;;;;;;17.45;3.88;;;13.00;81.40;;;;;;5088806;28;20273;-69
2021/04/03 11:40:41;;;;;;;22.40;4.97;;;12.90;76.90;;;;;;5090513;28;20576;-69
2021/04/03 11:43:07;;;;;;;23.05;4.68;;;12.90;79.50;;;;;;5086642;28;20044;-68
2021/04/03 11:45:33;;;;;;;22.50;4.72;;;13.10;80.70;;;;;;5086189;28;20687;-69
2021/04/03 11:47:58;;;;;;;17.42;3.97;;;13.00;80.00;;;;;;5085206;28;20686;-69
2021/04/03 11:50:26;;;;;;;23.75;4.10;;;12.80;79.70;;;;;;5086031;28;20059;-69
2021/04/03 11:52:54;;;;;;;21.25;5.10;;;12.90;79.40;;;;;;5084911;28;20043;-69
2021/04/03 11:55:21;;;;;;;20.05;3.88;;;13.10;79.40;;;;;;5085885;28;20057;-69
2021/04/03 11:57:47;;;;;;;17.52;4.22;;;13.00;77.90;;;;;;5084976;28;20406;-69
2021/04/03 12:00:13;;;;;;;17.77;3.45;;;12.90;80.60;;;;;;5086945;28;20044;-69
2021/04/03 12:02:39;;;;;;;20.90;3.63;;;13.00;81.40;;;;;;5084499;28;20044;-69
2021/04/03 12:05:06;;;;;;;17.48;3.65;;;13.00;80.00;;;;;;5086288;28;20051;-69
2021/04/03 12:07:36;;;;;;;20.23;3.75;;;13.00;78.30;;;;;;5083899;28;20095;-68
2021/04/03 12:10:04;;;;;;;16.55;3.83;;;12.70;75.70;;;;;;5085210;28;20048;-68
2021/04/03 12:12:30;;;;;;;18.45;3.78;;;12.80;79.10;;;;;;5080426;28;20036;-68
2021/04/03 12:14:56;;;;;;;26.20;5.82;;;12.70;75.90;;;;;;5084967;28;20632;-69
2021/04/03 12:17:22;;;;;;;21.27;3.97;;;12.60;79.20;;;;;;5084508;28;20125;-68
2021/04/03 12:19:47;;;;;;;20.20;4.07;;;12.50;79.50;;;;;;5085841;28;20035;-69
2021/04/03 12:22:13;;;;;;;22.48;4.82;;;12.50;81.00;;;;;;5087383;28;20375;-69
2021/04/03 12:24:39;;;;;;;21.95;4.40;;;12.70;81.90;;;;;;5089878;28;20046;-69
2021/04/03 12:27:05;;;;;;;26.08;4.40;;;12.80;78.20;;;;;;5087406;28;20040;-69
2021/04/03 12:29:31;;;;;;;20.08;4.07;;;12.80;79.90;;;;;;5088603;28;20036;-69
2021/04/03 12:31:56;;;;;;;23.35;4.80;;;12.80;81.10;;;;;;5086936;28;20054;-69
2021/04/03 12:34:22;;;;;;;19.95;3.70;;;12.80;77.50;;;;;;5089523;28;20074;-69
2021/04/03 12:36:48;;;;;;;18.63;3.83;;;12.60;77.50;;;;;;5088726;28;20154;-69
2021/04/03 12:39:13;;;;;;;23.65;4.97;;;12.60;78.20;;;;;;5089293;28;20048;-69
2021/04/03 12:41:39;;;;;;;19.50;3.90;;;12.60;79.20;;;;;;5089062;28;20428;-69
2021/04/03 12:44:05;;;;;;;20.67;3.50;;;12.70;77.80;;;;;;5089217;28;20036;-69
2021/04/03 12:46:30;;;;;;;16.83;3.33;;;12.70;75.40;;;;;;5089040;28;20039;-69